Terminal Aerodrome Forecast
Issued by NWS

Home | Current Version | Previous Version | Text Only | Print | Product List | Glossary On
Versions: 1 2 3 4 5 6 7 8 9 10 11 12 13 14 15 16 17 18 19 20 21 22 23 24 25 26 27 28 29 30 31 32
022
FTUS45 KBOU 090537
TAFAPA
TAF
KAPA 090537Z 0906/1006 24008KT P6SM FEW220
     FM090900 18006KT P6SM FEW220
     FM091900 05007KT P6SM SCT220
     FM100200 19007KT P6SM FEW220
     FM100500 20007KT P6SM SKC=

USA.gov is the U.S. government's official web portal to all federal, state and local government web resources and services.